Time;durP1;ratioP1;P1;durP2;ratioP2;P2;SDS_P1;SDS_P2;PMS_P1;PMS_P2;Temp;Humidity;BMP_temperature;BMP_pressure;BME280_temperature;BME280_humidity;BME280_pressure;Samples;Min_cycle;Max_cycle;Signal;HPM_P1;HPM_P2
2021/06/20 00:05:47;;;;;;;11.2;8.4;;;;;;;18.16;100;98446.2;;;;
2021/06/20 00:15:46;;;;;;;10.3;8.3;;;;;;;18.11;100;98438.33;;;;
2021/06/20 00:25:46;;;;;;;11.1;8.6;;;;;;;18;100;98423.69;;;;
2021/06/20 00:35:45;;;;;;;11.6;8.7;;;;;;;17.81;100;98416.3;;;;
2021/06/20 00:45:46;;;;;;;9.9;6.6;;;;;;;17.72;100;98426.63;;;;
2021/06/20 00:55:45;;;;;;;10.2;6.4;;;;;;;17.66;100;98419.89;;;;
2021/06/20 01:05:44;;;;;;;11.8;8.6;;;;;;;17.52;100;98414.91;;;;
2021/06/20 01:15:43;;;;;;;10.6;6.8;;;;;;;17.37;100;98417.66;;;;
2021/06/20 01:25:42;;;;;;;7.3;5.1;;;;;;;17.08;100;98416.22;;;;
2021/06/20 01:35:42;;;;;;;10.7;6.7;;;;;;;16.91;100;98406.5;;;;
2021/06/20 01:45:41;;;;;;;9.1;7.5;;;;;;;16.64;100;98401.96;;;;
2021/06/20 01:55:40;;;;;;;10;8;;;;;;;16.46;100;98390.6;;;;
2021/06/20 02:05:40;;;;;;;11.6;7.6;;;;;;;16.34;100;98368.94;;;;
2021/06/20 02:15:39;;;;;;;10.4;9.3;;;;;;;16.36;100;98365.85;;;;
2021/06/20 02:25:38;;;;;;;12.2;8.3;;;;;;;16.46;100;98368.84;;;;
2021/06/20 02:35:37;;;;;;;12.1;10.2;;;;;;;16.29;100;98369.19;;;;
2021/06/20 02:45:37;;;;;;;11.9;8.2;;;;;;;16.26;100;98371.81;;;;
2021/06/20 02:55:36;;;;;;;11.8;9.7;;;;;;;16.35;100;98364.27;;;;
2021/06/20 03:05:35;;;;;;;13.5;8.2;;;;;;;16.5;100;98385.25;;;;
2021/06/20 03:15:37;;;;;;;10.7;7.7;;;;;;;16.43;100;98407.63;;;;
2021/06/20 03:25:34;;;;;;;9.9;8.2;;;;;;;16.49;100;98380.94;;;;
2021/06/20 03:35:33;;;;;;;11.1;7.3;;;;;;;16.72;100;98373.79;;;;
2021/06/20 03:45:33;;;;;;;9.5;7.1;;;;;;;16.9;100;98383.14;;;;
2021/06/20 03:55:32;;;;;;;15.4;8;;;;;;;17.13;100;98387.94;;;;
2021/06/20 04:05:31;;;;;;;8.6;7.4;;;;;;;17.2;100;98380.72;;;;
2021/06/20 04:15:31;;;;;;;12.5;7.2;;;;;;;17.54;100;98381.83;;;;
2021/06/20 04:25:30;;;;;;;17.3;7.6;;;;;;;17.83;100;98386.75;;;;
2021/06/20 04:35:30;;;;;;;8.9;6.5;;;;;;;18.16;100;98378.02;;;;
2021/06/20 04:45:29;;;;;;;9.5;6.8;;;;;;;18.47;100;98393.37;;;;
2021/06/20 04:55:29;;;;;;;15.5;9;;;;;;;18.85;100;98365.95;;;;
2021/06/20 05:05:28;;;;;;;9.4;7.3;;;;;;;19.14;100;98380.03;;;;
2021/06/20 05:15:28;;;;;;;10.2;8.2;;;;;;;19.48;100;98354.36;;;;
2021/06/20 05:25:28;;;;;;;10.6;6.8;;;;;;;19.62;100;98357.28;;;;
2021/06/20 05:35:27;;;;;;;8.6;6.8;;;;;;;20.11;100;98343.36;;;;
2021/06/20 05:45:27;;;;;;;11.1;7.4;;;;;;;20.47;100;98361.73;;;;
2021/06/20 05:55:27;;;;;;;10.2;7.3;;;;;;;20.73;100;98376.4;;;;
2021/06/20 06:05:27;;;;;;;10.8;7.2;;;;;;;20.94;100;98396.53;;;;
2021/06/20 06:15:27;;;;;;;10.5;6.9;;;;;;;21.28;100;98394.43;;;;
2021/06/20 06:25:27;;;;;;;8.3;6.7;;;;;;;21.74;100;98399.38;;;;
2021/06/20 06:35:27;;;;;;;10.5;6.3;;;;;;;21.91;100;98395.94;;;;
2021/06/20 06:45:27;;;;;;;9.1;5.9;;;;;;;22.28;100;98410.19;;;;
2021/06/20 06:55:27;;;;;;;10.5;6.3;;;;;;;22.56;100;98398.46;;;;
2021/06/20 07:05:27;;;;;;;9.1;6.5;;;;;;;22.85;100;98405.55;;;;
2021/06/20 07:15:27;;;;;;;8.4;6.5;;;;;;;23.08;100;98400.42;;;;
2021/06/20 07:25:27;;;;;;;9.4;5.8;;;;;;;23.6;100;98397.22;;;;
2021/06/20 07:35:28;;;;;;;11;6.8;;;;;;;23.88;100;98400.63;;;;
2021/06/20 07:45:28;;;;;;;12;6.8;;;;;;;24.13;100;98384.02;;;;
2021/06/20 07:55:28;;;;;;;9.4;6.7;;;;;;;24.59;100;98361.68;;;;
2021/06/20 08:05:29;;;;;;;9.9;6.3;;;;;;;24.99;100;98374.73;;;;
2021/06/20 08:15:29;;;;;;;10.4;6.5;;;;;;;25.08;100;98374.28;;;;
2021/06/20 08:25:30;;;;;;;8.8;5.4;;;;;;;25.38;100;98368.05;;;;
2021/06/20 08:35:30;;;;;;;9.6;5.8;;;;;;;25.29;100;98357.52;;;;
2021/06/20 08:45:31;;;;;;;7.1;5.1;;;;;;;25.65;98.93945;98354.38;;;;
2021/06/20 08:55:32;;;;;;;6.5;5.6;;;;;;;25.82;98.41992;98356.14;;;;
2021/06/20 09:05:32;;;;;;;7.3;4.4;;;;;;;26.27;93.58984;98345.67;;;;
2021/06/20 09:15:34;;;;;;;7.7;5.1;;;;;;;26.59;94.31934;98348.7;;;;
2021/06/20 09:25:34;;;;;;;6.8;4.6;;;;;;;26.84;88.84668;98357.41;;;;
2021/06/20 09:35:34;;;;;;;6.5;5.1;;;;;;;27.26;86.23047;98353.09;;;;
2021/06/20 09:45:35;;;;;;;6.5;4.2;;;;;;;27.29;86.65625;98334.84;;;;
2021/06/20 09:55:36;;;;;;;6.5;3.3;;;;;;;27.64;82.3457;98327.85;;;;
2021/06/20 10:05:37;;;;;;;9.8;4.5;;;;;;;27.81;80.93555;98312.84;;;;
2021/06/20 10:15:38;;;;;;;11.6;3.5;;;;;;;28.05;82.69043;98305.97;;;;
2021/06/20 10:25:40;;;;;;;6;3.8;;;;;;;28.29;85.04297;98298.34;;;;
2021/06/20 10:35:39;;;;;;;7.6;3;;;;;;;28.72;78.77246;98309.17;;;;
2021/06/20 10:45:40;;;;;;;6.5;3.9;;;;;;;28.66;80.3252;98311.67;;;;
2021/06/20 10:55:41;;;;;;;6.4;3.4;;;;;;;28.8;75.38867;98289.16;;;;
2021/06/20 11:05:42;;;;;;;3.6;1.8;;;;;;;29.1;76.39063;98295.48;;;;
2021/06/20 11:15:43;;;;;;;7.6;3.9;;;;;;;29.21;72.90039;98287.65;;;;
2021/06/20 11:25:45;;;;;;;4.5;2.4;;;;;;;29.42;65.71191;98271.2;;;;
2021/06/20 11:35:46;;;;;;;5.2;2.5;;;;;;;29.57;63.9707;98259.68;;;;
2021/06/20 11:45:47;;;;;;;6.3;2.8;;;;;;;29.15;62.83594;98258.88;;;;
2021/06/20 11:55:52;;;;;;;4.3;2.1;;;;;;;29.91;63.39355;98246.73;;;;
2021/06/20 12:05:49;;;;;;;5.2;3.3;;;;;;;29.71;62.99805;98225.92;;;;
2021/06/20 12:15:50;;;;;;;4.6;2.2;;;;;;;29.76;57.60547;98217.8;;;;
2021/06/20 12:25:51;;;;;;;5.5;2.9;;;;;;;30.01;59.02344;98200.37;;;;
2021/06/20 12:35:52;;;;;;;4.3;2.1;;;;;;;30.3;58.23145;98198.19;;;;
2021/06/20 12:45:53;;;;;;;6.8;2.4;;;;;;;30.52;60.59668;98214.96;;;;
2021/06/20 12:55:54;;;;;;;4.9;2;;;;;;;30.93;59.37988;98202.77;;;;
2021/06/20 13:05:57;;;;;;;4.9;2.2;;;;;;;30.87;56.33203;98194.23;;;;
2021/06/20 13:15:57;;;;;;;3.9;2;;;;;;;30.47;58.7627;98198.86;;;;
2021/06/20 13:25:58;;;;;;;4;2.4;;;;;;;30.99;58.30566;98208.58;;;;
2021/06/20 13:35:59;;;;;;;3.8;1.7;;;;;;;31;57.00195;98191.41;;;;
2021/06/20 13:46:01;;;;;;;3.7;1.6;;;;;;;31;56.43164;98194.19;;;;
2021/06/20 13:56:02;;;;;;;4.3;2.2;;;;;;;31.18;58.48535;98201.89;;;;
2021/06/20 14:06:03;;;;;;;4.7;2.4;;;;;;;31.75;55.6416;98200.52;;;;
2021/06/20 14:16:04;;;;;;;4.3;2.3;;;;;;;31.81;58.01855;98187.53;;;;
2021/06/20 14:26:06;;;;;;;5.6;2.1;;;;;;;31.95;58.57324;98170.23;;;;
2021/06/20 14:36:07;;;;;;;3.7;1.9;;;;;;;32.31;58.05859;98163.98;;;;
2021/06/20 14:46:08;;;;;;;4.5;2.5;;;;;;;32.17;57.70703;98175.73;;;;
2021/06/20 14:56:10;;;;;;;2.7;1.6;;;;;;;32.36;58.51758;98163.36;;;;
2021/06/20 15:06:11;;;;;;;4;1.7;;;;;;;34.27;53.39648;98160.09;;;;
2021/06/20 15:16:13;;;;;;;3.3;1.7;;;;;;;35.32;50.37012;98167.75;;;;
2021/06/20 15:26:15;;;;;;;3.6;1.3;;;;;;;35.74;49.11523;98163.85;;;;
2021/06/20 15:36:17;;;;;;;3.1;1.5;;;;;;;36.22;48.28711;98147.45;;;;
2021/06/20 15:46:21;;;;;;;4;1.7;;;;;;;35.69;48.83496;98134.45;;;;
2021/06/20 15:56:21;;;;;;;2.7;1.3;;;;;;;36.07;47.70605;98135.48;;;;
2021/06/20 16:06:24;;;;;;;3.4;1.5;;;;;;;36.26;49.03906;98125.56;;;;
2021/06/20 16:16:26;;;;;;;3.1;1.3;;;;;;;37.12;44.49023;98127.55;;;;
2021/06/20 16:26:29;;;;;;;2.5;1.3;;;;;;;35.63;44.40723;98113.2;;;;
2021/06/20 16:36:32;;;;;;;4.1;1.1;;;;;;;36.15;42.99805;98102.97;;;;
2021/06/20 16:46:34;;;;;;;2.2;1.2;;;;;;;35.62;42.64746;98106.82;;;;
2021/06/20 16:56:37;;;;;;;3.5;0.9;;;;;;;35.9;42.28613;98095.22;;;;
2021/06/20 17:06:39;;;;;;;3.2;1.4;;;;;;;35.15;43.95215;98079.84;;;;
2021/06/20 17:16:42;;;;;;;2.8;1.4;;;;;;;31.56;52.66504;98065.92;;;;
2021/06/20 17:26:45;;;;;;;4.4;2.3;;;;;;;30.48;57.00781;98060.58;;;;
2021/06/20 17:36:45;;;;;;;6.2;2.6;;;;;;;32.03;53.78027;98070.34;;;;
2021/06/20 17:46:48;;;;;;;6.2;2;;;;;;;33.25;50.6709;98079.23;;;;
2021/06/20 17:56:49;;;;;;;4.2;1.6;;;;;;;33.28;50.5791;98084.65;;;;
2021/06/20 18:06:51;;;;;;;6.5;2.4;;;;;;;30.47;58.08691;98073.7;;;;
2021/06/20 18:16:52;;;;;;;5.8;2.9;;;;;;;28.45;64.11133;98063.45;;;;
2021/06/20 18:26:54;;;;;;;4.5;2.3;;;;;;;27.07;70.79785;98076.42;;;;
2021/06/20 18:36:55;;;;;;;5;3.2;;;;;;;26.01;74.75293;98077.31;;;;
2021/06/20 18:46:55;;;;;;;5.2;2.7;;;;;;;25.51;76.57422;98066.33;;;;
2021/06/20 18:56:56;;;;;;;6.2;2.8;;;;;;;24.94;80.9502;98088.45;;;;
2021/06/20 19:06:57;;;;;;;8.5;2.9;;;;;;;24.51;83.7334;98092.89;;;;
2021/06/20 19:16:57;;;;;;;9.7;4;;;;;;;24.06;87.38672;98090.2;;;;
2021/06/20 19:26:57;;;;;;;6.3;3.9;;;;;;;23.79;89.12988;98092.03;;;;
2021/06/20 19:36:57;;;;;;;4.4;2.7;;;;;;;23.46;90.51172;98100.97;;;;
2021/06/20 19:46:58;;;;;;;6.5;3.7;;;;;;;23.14;94.57227;98103.11;;;;
2021/06/20 19:56:58;;;;;;;6.2;4.1;;;;;;;23.02;95.57715;98116.13;;;;
2021/06/20 20:06:59;;;;;;;5.4;3.7;;;;;;;22.91;96.72949;98125.59;;;;
2021/06/20 20:16:58;;;;;;;7;3.8;;;;;;;22.65;98.58496;98117.84;;;;
2021/06/20 20:26:58;;;;;;;5.7;3.7;;;;;;;22.37;100;98094.01;;;;
2021/06/20 20:36:58;;;;;;;7.4;3.8;;;;;;;22.11;100;98099.97;;;;
2021/06/20 20:46:58;;;;;;;9;3.9;;;;;;;21.89;100;98110.95;;;;
2021/06/20 20:56:58;;;;;;;5.7;4.5;;;;;;;21.61;100;98105.47;;;;
2021/06/20 21:06:58;;;;;;;8.3;4.9;;;;;;;21.24;100;98105.81;;;;
2021/06/20 21:16:58;;;;;;;7.9;4.3;;;;;;;20.99;100;98103.02;;;;
2021/06/20 21:26:58;;;;;;;5.8;4.6;;;;;;;20.8;100;98097.06;;;;
2021/06/20 21:36:58;;;;;;;6.5;4.8;;;;;;;20.44;100;98088.7;;;;
2021/06/20 21:46:58;;;;;;;7.4;4.5;;;;;;;20.1;100;98088.11;;;;
2021/06/20 21:56:57;;;;;;;8.9;5.2;;;;;;;19.96;100;98082.55;;;;
2021/06/20 22:06:57;;;;;;;5.6;4.4;;;;;;;19.92;100;98070.04;;;;
2021/06/20 22:16:57;;;;;;;11.6;5.2;;;;;;;20.24;100;98068.25;;;;
2021/06/20 22:26:56;;;;;;;10.4;6;;;;;;;20.51;100;98060.6;;;;
2021/06/20 22:36:56;;;;;;;7.2;4.7;;;;;;;20.62;100;98055.92;;;;
2021/06/20 22:46:56;;;;;;;5.3;4;;;;;;;20.58;100;98055.16;;;;
2021/06/20 22:56:56;;;;;;;6.8;4.9;;;;;;;20.45;100;98078.55;;;;
2021/06/20 23:06:56;;;;;;;7.6;5.7;;;;;;;20.26;100;98073.36;;;;
2021/06/20 23:16:57;;;;;;;8;5.9;;;;;;;20.04;100;98069.71;;;;
2021/06/20 23:26:55;;;;;;;20.1;5.8;;;;;;;19.97;100;98056.78;;;;
2021/06/20 23:36:55;;;;;;;8.8;4.8;;;;;;;19.77;100;98055.48;;;;
2021/06/20 23:46:55;;;;;;;7.1;5.1;;;;;;;19.45;100;98051.72;;;;
2021/06/20 23:56:54;;;;;;;7.8;4.9;;;;;;;19;100;98042.72;;;;
